sensor_id;sensor_type;location;lat;lon;timestamp;P1;durP1;ratioP1;P2;durP2;ratioP2
1677;SDS011;6034;46.864;15.216;2023-12-29T06:02:29;10.10;;;5.90;;
1677;SDS011;6034;46.864;15.216;2023-12-29T06:04:56;10.18;;;6.38;;
1677;SDS011;6034;46.864;15.216;2023-12-29T06:07:23;4.50;;;3.33;;
1677;SDS011;6034;46.864;15.216;2023-12-29T06:09:51;3.58;;;2.60;;
1677;SDS011;6034;46.864;15.216;2023-12-29T06:12:18;3.95;;;2.90;;
1677;SDS011;6034;46.864;15.216;2023-12-29T06:14:46;5.93;;;3.33;;
1677;SDS011;6034;46.864;15.216;2023-12-29T06:17:13;4.45;;;3.10;;
1677;SDS011;6034;46.864;15.216;2023-12-29T06:19:42;3.47;;;2.47;;
1677;SDS011;6034;46.864;15.216;2023-12-29T06:22:10;4.00;;;1.80;;
1677;SDS011;6034;46.864;15.216;2023-12-29T06:24:39;2.30;;;1.40;;
1677;SDS011;6034;46.864;15.216;2023-12-29T06:27:07;2.67;;;1.40;;
1677;SDS011;6034;46.864;15.216;2023-12-29T06:29:35;2.55;;;2.08;;
1677;SDS011;6034;46.864;15.216;2023-12-29T06:32:03;3.55;;;2.58;;
1677;SDS011;6034;46.864;15.216;2023-12-29T06:34:31;3.05;;;2.20;;
1677;SDS011;6034;46.864;15.216;2023-12-29T06:37:00;4.45;;;2.50;;
1677;SDS011;6034;46.864;15.216;2023-12-29T06:39:27;3.67;;;1.95;;
1677;SDS011;6034;46.864;15.216;2023-12-29T06:41:55;2.53;;;2.15;;
1677;SDS011;6034;46.864;15.216;2023-12-29T06:44:22;2.58;;;1.70;;
1677;SDS011;6034;46.864;15.216;2023-12-29T06:46:49;2.70;;;1.70;;
1677;SDS011;6034;46.864;15.216;2023-12-29T06:49:17;2.97;;;2.08;;
1677;SDS011;6034;46.864;15.216;2023-12-29T06:51:44;2.22;;;1.45;;
1677;SDS011;6034;46.864;15.216;2023-12-29T06:54:14;2.33;;;1.60;;
1677;SDS011;6034;46.864;15.216;2023-12-29T06:56:41;2.60;;;1.80;;
1677;SDS011;6034;46.864;15.216;2023-12-29T06:59:08;2.90;;;2.03;;
1677;SDS011;6034;46.864;15.216;2023-12-29T07:01:38;3.35;;;2.20;;
1677;SDS011;6034;46.864;15.216;2023-12-29T07:04:06;5.03;;;2.58;;
1677;SDS011;6034;46.864;15.216;2023-12-29T07:06:35;3.15;;;1.95;;
1677;SDS011;6034;46.864;15.216;2023-12-29T07:09:03;4.22;;;1.95;;
1677;SDS011;6034;46.864;15.216;2023-12-29T07:11:33;3.55;;;2.30;;
1677;SDS011;6034;46.864;15.216;2023-12-29T07:14:01;3.10;;;2.17;;
1677;SDS011;6034;46.864;15.216;2023-12-29T07:16:29;2.35;;;1.85;;
1677;SDS011;6034;46.864;15.216;2023-12-29T07:18:56;3.40;;;2.03;;
1677;SDS011;6034;46.864;15.216;2023-12-29T07:21:24;2.88;;;1.90;;
1677;SDS011;6034;46.864;15.216;2023-12-29T07:23:52;3.53;;;2.03;;
1677;SDS011;6034;46.864;15.216;2023-12-29T07:26:19;3.17;;;1.90;;
1677;SDS011;6034;46.864;15.216;2023-12-29T07:28:48;4.88;;;1.65;;
1677;SDS011;6034;46.864;15.216;2023-12-29T07:31:19;3.42;;;2.42;;
1677;SDS011;6034;46.864;15.216;2023-12-29T07:33:48;3.55;;;2.20;;
1677;SDS011;6034;46.864;15.216;2023-12-29T07:36:16;2.63;;;1.80;;
1677;SDS011;6034;46.864;15.216;2023-12-29T07:38:44;4.38;;;2.80;;
1677;SDS011;6034;46.864;15.216;2023-12-29T07:41:11;3.20;;;2.30;;
1677;SDS011;6034;46.864;15.216;2023-12-29T07:43:39;3.95;;;2.33;;
1677;SDS011;6034;46.864;15.216;2023-12-29T07:46:08;4.07;;;2.22;;
1677;SDS011;6034;46.864;15.216;2023-12-29T07:48:36;3.30;;;2.40;;
1677;SDS011;6034;46.864;15.216;2023-12-29T07:51:05;3.88;;;2.45;;
1677;SDS011;6034;46.864;15.216;2023-12-29T07:53:33;3.55;;;2.28;;
1677;SDS011;6034;46.864;15.216;2023-12-29T07:56:01;7.63;;;5.70;;
1677;SDS011;6034;46.864;15.216;2023-12-29T07:58:31;7.35;;;4.93;;
1677;SDS011;6034;46.864;15.216;2023-12-29T08:01:00;5.70;;;4.93;;
1677;SDS011;6034;46.864;15.216;2023-12-29T08:03:31;2.80;;;2.50;;
1677;SDS011;6034;46.864;15.216;2023-12-29T08:06:02;3.80;;;2.40;;
1677;SDS011;6034;46.864;15.216;2023-12-29T08:08:31;3.42;;;2.40;;
1677;SDS011;6034;46.864;15.216;2023-12-29T08:11:00;3.13;;;2.10;;
1677;SDS011;6034;46.864;15.216;2023-12-29T08:13:28;3.50;;;2.40;;
1677;SDS011;6034;46.864;15.216;2023-12-29T08:16:00;3.80;;;2.22;;
1677;SDS011;6034;46.864;15.216;2023-12-29T08:18:29;3.20;;;2.50;;
1677;SDS011;6034;46.864;15.216;2023-12-29T08:20:57;3.10;;;2.28;;
1677;SDS011;6034;46.864;15.216;2023-12-29T08:23:27;2.60;;;2.05;;
1677;SDS011;6034;46.864;15.216;2023-12-29T08:25:57;3.33;;;2.17;;
1677;SDS011;6034;46.864;15.216;2023-12-29T08:28:26;3.45;;;2.00;;
1677;SDS011;6034;46.864;15.216;2023-12-29T08:30:56;3.70;;;2.55;;
1677;SDS011;6034;46.864;15.216;2023-12-29T08:33:26;4.55;;;2.67;;
1677;SDS011;6034;46.864;15.216;2023-12-29T08:35:57;3.72;;;2.65;;
1677;SDS011;6034;46.864;15.216;2023-12-29T08:38:27;4.47;;;2.53;;
1677;SDS011;6034;46.864;15.216;2023-12-29T08:40:56;4.35;;;3.50;;
1677;SDS011;6034;46.864;15.216;2023-12-29T08:43:26;3.90;;;2.78;;
1677;SDS011;6034;46.864;15.216;2023-12-29T08:45:57;4.32;;;3.45;;
1677;SDS011;6034;46.864;15.216;2023-12-29T08:48:27;5.63;;;3.97;;
1677;SDS011;6034;46.864;15.216;2023-12-29T08:50:59;5.18;;;3.05;;
1677;SDS011;6034;46.864;15.216;2023-12-29T08:53:26;2.60;;;2.40;;
1677;SDS011;6034;46.864;15.216;2023-12-29T08:55:57;3.50;;;2.50;;
1677;SDS011;6034;46.864;15.216;2023-12-29T08:58:26;3.40;;;2.70;;
1677;SDS011;6034;46.864;15.216;2023-12-29T09:00:56;7.75;;;3.28;;
1677;SDS011;6034;46.864;15.216;2023-12-29T09:03:24;3.80;;;2.97;;
1677;SDS011;6034;46.864;15.216;2023-12-29T09:05:56;4.88;;;2.55;;
1677;SDS011;6034;46.864;15.216;2023-12-29T09:08:25;3.80;;;2.80;;
1677;SDS011;6034;46.864;15.216;2023-12-29T09:10:52;4.88;;;2.42;;
1677;SDS011;6034;46.864;15.216;2023-12-29T09:13:20;2.40;;;1.88;;
1677;SDS011;6034;46.864;15.216;2023-12-29T09:15:50;3.35;;;2.40;;
1677;SDS011;6034;46.864;15.216;2023-12-29T09:18:18;3.15;;;2.85;;
1677;SDS011;6034;46.864;15.216;2023-12-29T09:20:45;3.85;;;2.60;;
1677;SDS011;6034;46.864;15.216;2023-12-29T09:23:14;3.92;;;2.88;;
1677;SDS011;6034;46.864;15.216;2023-12-29T09:25:41;5.45;;;2.58;;
1677;SDS011;6034;46.864;15.216;2023-12-29T09:28:09;3.28;;;2.30;;
1677;SDS011;6034;46.864;15.216;2023-12-29T09:30:43;3.35;;;2.40;;
1677;SDS011;6034;46.864;15.216;2023-12-29T09:33:10;4.60;;;2.53;;
1677;SDS011;6034;46.864;15.216;2023-12-29T09:35:38;3.08;;;2.60;;
1677;SDS011;6034;46.864;15.216;2023-12-29T09:38:05;4.13;;;3.22;;
1677;SDS011;6034;46.864;15.216;2023-12-29T09:40:36;4.20;;;3.13;;
1677;SDS011;6034;46.864;15.216;2023-12-29T09:43:04;6.53;;;3.28;;
1677;SDS011;6034;46.864;15.216;2023-12-29T09:45:31;4.80;;;3.17;;
1677;SDS011;6034;46.864;15.216;2023-12-29T09:48:00;3.45;;;2.75;;
1677;SDS011;6034;46.864;15.216;2023-12-29T09:50:29;3.17;;;2.55;;
1677;SDS011;6034;46.864;15.216;2023-12-29T09:52:56;3.90;;;2.83;;
1677;SDS011;6034;46.864;15.216;2023-12-29T09:55:28;3.70;;;2.80;;
1677;SDS011;6034;46.864;15.216;2023-12-29T09:57:57;3.22;;;2.90;;
1677;SDS011;6034;46.864;15.216;2023-12-29T10:00:26;4.55;;;3.00;;
1677;SDS011;6034;46.864;15.216;2023-12-29T10:02:54;4.25;;;2.85;;
1677;SDS011;6034;46.864;15.216;2023-12-29T10:05:23;3.85;;;3.05;;
1677;SDS011;6034;46.864;15.216;2023-12-29T10:07:50;3.88;;;3.28;;
1677;SDS011;6034;46.864;15.216;2023-12-29T10:10:20;3.40;;;2.88;;
1677;SDS011;6034;46.864;15.216;2023-12-29T10:12:50;3.60;;;2.75;;
1677;SDS011;6034;46.864;15.216;2023-12-29T10:15:24;3.00;;;2.40;;
1677;SDS011;6034;46.864;15.216;2023-12-29T10:18:00;6.10;;;3.97;;
1677;SDS011;6034;46.864;15.216;2023-12-29T10:20:37;7.97;;;4.63;;
1677;SDS011;6034;46.864;15.216;2023-12-29T10:23:12;4.75;;;3.33;;
1677;SDS011;6034;46.864;15.216;2023-12-29T10:25:44;4.45;;;3.30;;
1677;SDS011;6034;46.864;15.216;2023-12-29T10:28:12;5.60;;;2.90;;
1677;SDS011;6034;46.864;15.216;2023-12-29T10:30:41;6.60;;;3.80;;
1677;SDS011;6034;46.864;15.216;2023-12-29T10:33:09;3.40;;;2.58;;
1677;SDS011;6034;46.864;15.216;2023-12-29T10:35:36;5.15;;;2.40;;
1677;SDS011;6034;46.864;15.216;2023-12-29T10:38:10;4.53;;;2.95;;
1677;SDS011;6034;46.864;15.216;2023-12-29T10:40:38;3.92;;;2.90;;
1677;SDS011;6034;46.864;15.216;2023-12-29T10:43:08;3.40;;;2.40;;
1677;SDS011;6034;46.864;15.216;2023-12-29T10:45:35;2.67;;;2.00;;
1677;SDS011;6034;46.864;15.216;2023-12-29T10:48:05;3.40;;;2.20;;
1677;SDS011;6034;46.864;15.216;2023-12-29T10:50:37;4.80;;;2.63;;
1677;SDS011;6034;46.864;15.216;2023-12-29T10:53:11;4.93;;;2.50;;
1677;SDS011;6034;46.864;15.216;2023-12-29T10:55:39;3.20;;;2.70;;
1677;SDS011;6034;46.864;15.216;2023-12-29T10:58:07;4.85;;;3.20;;
1677;SDS011;6034;46.864;15.216;2023-12-29T11:00:35;2.90;;;2.60;;
1677;SDS011;6034;46.864;15.216;2023-12-29T11:03:06;2.90;;;2.45;;
1677;SDS011;6034;46.864;15.216;2023-12-29T11:05:36;3.38;;;2.28;;
1677;SDS011;6034;46.864;15.216;2023-12-29T11:08:04;2.40;;;2.15;;
1677;SDS011;6034;46.864;15.216;2023-12-29T11:10:43;4.10;;;2.85;;
1677;SDS011;6034;46.864;15.216;2023-12-29T11:13:11;3.90;;;2.78;;
1677;SDS011;6034;46.864;15.216;2023-12-29T11:15:40;4.35;;;3.00;;
1677;SDS011;6034;46.864;15.216;2023-12-29T11:18:13;3.15;;;2.35;;
1677;SDS011;6034;46.864;15.216;2023-12-29T11:20:42;4.55;;;3.22;;
1677;SDS011;6034;46.864;15.216;2023-12-29T11:23:10;3.63;;;2.17;;
1677;SDS011;6034;46.864;15.216;2023-12-29T11:25:38;3.85;;;2.95;;
1677;SDS011;6034;46.864;15.216;2023-12-29T11:28:06;5.63;;;4.32;;
1677;SDS011;6034;46.864;15.216;2023-12-29T11:30:37;5.80;;;4.38;;
1677;SDS011;6034;46.864;15.216;2023-12-29T11:33:08;3.83;;;3.38;;
1677;SDS011;6034;46.864;15.216;2023-12-29T11:35:42;4.97;;;3.38;;
1677;SDS011;6034;46.864;15.216;2023-12-29T11:38:15;4.25;;;3.10;;
1677;SDS011;6034;46.864;15.216;2023-12-29T11:40:53;5.20;;;4.00;;
1677;SDS011;6034;46.864;15.216;2023-12-29T11:43:27;6.15;;;3.80;;
1677;SDS011;6034;46.864;15.216;2023-12-29T11:45:56;6.00;;;3.83;;
1677;SDS011;6034;46.864;15.216;2023-12-29T11:51:31;5.45;;;4.10;;
1677;SDS011;6034;46.864;15.216;2023-12-29T11:54:01;8.18;;;3.70;;
1677;SDS011;6034;46.864;15.216;2023-12-29T11:56:36;4.65;;;3.67;;
1677;SDS011;6034;46.864;15.216;2023-12-29T11:59:12;5.43;;;3.60;;
1677;SDS011;6034;46.864;15.216;2023-12-29T12:01:40;4.30;;;3.10;;
1677;SDS011;6034;46.864;15.216;2023-12-29T12:07:08;4.28;;;2.78;;
1677;SDS011;6034;46.864;15.216;2023-12-29T12:09:40;4.40;;;2.92;;
1677;SDS011;6034;46.864;15.216;2023-12-29T12:12:07;3.30;;;2.20;;
1677;SDS011;6034;46.864;15.216;2023-12-29T12:14:43;4.65;;;3.55;;
1677;SDS011;6034;46.864;15.216;2023-12-29T12:17:11;5.68;;;2.45;;
1677;SDS011;6034;46.864;15.216;2023-12-29T12:19:38;3.42;;;2.28;;
1677;SDS011;6034;46.864;15.216;2023-12-29T12:22:08;3.63;;;2.70;;
1677;SDS011;6034;46.864;15.216;2023-12-29T12:24:40;3.38;;;2.40;;
1677;SDS011;6034;46.864;15.216;2023-12-29T12:27:09;3.60;;;2.45;;
1677;SDS011;6034;46.864;15.216;2023-12-29T12:29:38;3.53;;;2.75;;
1677;SDS011;6034;46.864;15.216;2023-12-29T12:32:06;3.80;;;3.45;;
1677;SDS011;6034;46.864;15.216;2023-12-29T12:34:36;4.80;;;2.70;;
1677;SDS011;6034;46.864;15.216;2023-12-29T12:37:05;2.88;;;2.42;;
1677;SDS011;6034;46.864;15.216;2023-12-29T12:39:38;2.83;;;2.20;;
1677;SDS011;6034;46.864;15.216;2023-12-29T12:42:06;4.45;;;2.90;;
1677;SDS011;6034;46.864;15.216;2023-12-29T12:44:34;3.28;;;2.60;;
1677;SDS011;6034;46.864;15.216;2023-12-29T12:47:06;3.38;;;2.53;;
1677;SDS011;6034;46.864;15.216;2023-12-29T12:49:35;3.45;;;2.65;;
1677;SDS011;6034;46.864;15.216;2023-12-29T12:52:03;3.22;;;2.90;;
1677;SDS011;6034;46.864;15.216;2023-12-29T12:54:32;3.28;;;2.50;;
1677;SDS011;6034;46.864;15.216;2023-12-29T12:57:00;4.43;;;2.90;;
1677;SDS011;6034;46.864;15.216;2023-12-29T12:59:27;4.32;;;2.88;;
1677;SDS011;6034;46.864;15.216;2023-12-29T13:01:55;3.90;;;2.63;;
1677;SDS011;6034;46.864;15.216;2023-12-29T13:04:22;3.22;;;2.30;;
1677;SDS011;6034;46.864;15.216;2023-12-29T13:06:53;3.95;;;2.50;;
1677;SDS011;6034;46.864;15.216;2023-12-29T13:09:20;2.78;;;2.40;;
1677;SDS011;6034;46.864;15.216;2023-12-29T13:11:49;4.22;;;2.65;;
1677;SDS011;6034;46.864;15.216;2023-12-29T13:14:33;3.67;;;2.53;;
1677;SDS011;6034;46.864;15.216;2023-12-29T13:17:04;2.55;;;2.30;;
1677;SDS011;6034;46.864;15.216;2023-12-29T13:19:32;4.07;;;2.50;;
1677;SDS011;6034;46.864;15.216;2023-12-29T13:22:00;3.25;;;2.30;;
1677;SDS011;6034;46.864;15.216;2023-12-29T13:24:29;3.33;;;2.35;;
1677;SDS011;6034;46.864;15.216;2023-12-29T13:27:02;3.55;;;2.60;;
1677;SDS011;6034;46.864;15.216;2023-12-29T13:29:32;6.85;;;2.95;;
1677;SDS011;6034;46.864;15.216;2023-12-29T13:32:04;3.63;;;2.55;;
1677;SDS011;6034;46.864;15.216;2023-12-29T13:34:37;4.70;;;2.40;;
1677;SDS011;6034;46.864;15.216;2023-12-29T13:37:12;4.00;;;2.42;;
1677;SDS011;6034;46.864;15.216;2023-12-29T13:39:46;4.38;;;2.53;;
1677;SDS011;6034;46.864;15.216;2023-12-29T13:42:21;2.92;;;2.13;;
1677;SDS011;6034;46.864;15.216;2023-12-29T13:44:51;3.00;;;2.55;;
1677;SDS011;6034;46.864;15.216;2023-12-29T13:47:20;3.92;;;2.88;;
1677;SDS011;6034;46.864;15.216;2023-12-29T13:49:48;3.58;;;2.70;;
1677;SDS011;6034;46.864;15.216;2023-12-29T13:52:19;2.92;;;2.25;;
1677;SDS011;6034;46.864;15.216;2023-12-29T13:54:46;3.13;;;2.30;;
1677;SDS011;6034;46.864;15.216;2023-12-29T13:57:13;4.15;;;2.75;;
1677;SDS011;6034;46.864;15.216;2023-12-29T13:59:42;4.43;;;2.78;;
1677;SDS011;6034;46.864;15.216;2023-12-29T14:02:20;7.47;;;3.58;;
1677;SDS011;6034;46.864;15.216;2023-12-29T14:05:06;4.68;;;3.28;;
1677;SDS011;6034;46.864;15.216;2023-12-29T14:07:46;4.40;;;2.60;;
1677;SDS011;6034;46.864;15.216;2023-12-29T14:10:18;19.30;;;3.85;;
1677;SDS011;6034;46.864;15.216;2023-12-29T14:12:46;3.83;;;3.13;;
1677;SDS011;6034;46.864;15.216;2023-12-29T14:15:15;5.28;;;3.83;;
1677;SDS011;6034;46.864;15.216;2023-12-29T14:17:42;4.03;;;3.63;;
1677;SDS011;6034;46.864;15.216;2023-12-29T14:20:10;5.15;;;3.03;;
1677;SDS011;6034;46.864;15.216;2023-12-29T14:22:37;3.30;;;3.00;;
1677;SDS011;6034;46.864;15.216;2023-12-29T14:25:05;4.68;;;2.72;;
1677;SDS011;6034;46.864;15.216;2023-12-29T14:27:34;4.28;;;2.63;;
1677;SDS011;6034;46.864;15.216;2023-12-29T14:30:16;3.75;;;2.70;;
1677;SDS011;6034;46.864;15.216;2023-12-29T14:32:46;4.15;;;3.15;;
1677;SDS011;6034;46.864;15.216;2023-12-29T14:35:13;3.22;;;2.70;;
1677;SDS011;6034;46.864;15.216;2023-12-29T14:37:40;3.65;;;2.78;;
1677;SDS011;6034;46.864;15.216;2023-12-29T14:40:10;3.20;;;2.38;;
1677;SDS011;6034;46.864;15.216;2023-12-29T14:42:39;5.07;;;3.53;;
1677;SDS011;6034;46.864;15.216;2023-12-29T14:45:06;4.38;;;2.83;;
1677;SDS011;6034;46.864;15.216;2023-12-29T14:47:36;3.10;;;2.60;;
1677;SDS011;6034;46.864;15.216;2023-12-29T14:50:04;3.85;;;3.15;;
1677;SDS011;6034;46.864;15.216;2023-12-29T14:52:32;4.80;;;2.90;;
1677;SDS011;6034;46.864;15.216;2023-12-29T14:54:59;7.32;;;3.25;;
1677;SDS011;6034;46.864;15.216;2023-12-29T14:57:27;3.75;;;3.00;;
1677;SDS011;6034;46.864;15.216;2023-12-29T14:59:54;2.95;;;2.55;;
1677;SDS011;6034;46.864;15.216;2023-12-29T15:02:21;3.17;;;2.88;;
1677;SDS011;6034;46.864;15.216;2023-12-29T15:04:51;3.85;;;2.75;;
1677;SDS011;6034;46.864;15.216;2023-12-29T15:07:18;4.32;;;2.65;;
1677;SDS011;6034;46.864;15.216;2023-12-29T15:09:53;2.85;;;2.55;;
1677;SDS011;6034;46.864;15.216;2023-12-29T15:12:20;3.80;;;2.97;;
1677;SDS011;6034;46.864;15.216;2023-12-29T15:14:48;5.78;;;2.97;;
1677;SDS011;6034;46.864;15.216;2023-12-29T15:17:15;3.50;;;2.78;;
1677;SDS011;6034;46.864;15.216;2023-12-29T15:19:43;3.80;;;2.50;;
1677;SDS011;6034;46.864;15.216;2023-12-29T15:22:11;4.78;;;3.13;;
1677;SDS011;6034;46.864;15.216;2023-12-29T15:24:39;3.83;;;3.53;;
1677;SDS011;6034;46.864;15.216;2023-12-29T15:27:06;3.00;;;2.58;;
1677;SDS011;6034;46.864;15.216;2023-12-29T15:29:33;3.47;;;2.88;;
1677;SDS011;6034;46.864;15.216;2023-12-29T15:32:01;3.25;;;2.55;;
1677;SDS011;6034;46.864;15.216;2023-12-29T15:34:28;3.65;;;3.08;;
1677;SDS011;6034;46.864;15.216;2023-12-29T15:36:55;4.53;;;3.00;;
1677;SDS011;6034;46.864;15.216;2023-12-29T15:39:24;4.20;;;2.80;;
1677;SDS011;6034;46.864;15.216;2023-12-29T15:41:52;4.00;;;3.20;;
1677;SDS011;6034;46.864;15.216;2023-12-29T15:44:19;3.40;;;2.67;;
1677;SDS011;6034;46.864;15.216;2023-12-29T15:46:47;4.40;;;3.05;;
1677;SDS011;6034;46.864;15.216;2023-12-29T15:49:14;4.32;;;3.40;;
1677;SDS011;6034;46.864;15.216;2023-12-29T15:51:42;6.90;;;3.70;;
1677;SDS011;6034;46.864;15.216;2023-12-29T15:54:09;3.28;;;2.92;;
1677;SDS011;6034;46.864;15.216;2023-12-29T15:56:38;4.60;;;2.97;;
1677;SDS011;6034;46.864;15.216;2023-12-29T15:59:05;6.47;;;5.53;;
1677;SDS011;6034;46.864;15.216;2023-12-29T16:01:33;4.70;;;3.10;;
1677;SDS011;6034;46.864;15.216;2023-12-29T16:04:00;4.55;;;2.80;;
1677;SDS011;6034;46.864;15.216;2023-12-29T16:06:28;3.58;;;2.75;;
1677;SDS011;6034;46.864;15.216;2023-12-29T16:08:55;6.35;;;4.55;;
1677;SDS011;6034;46.864;15.216;2023-12-29T16:11:24;4.47;;;3.08;;
1677;SDS011;6034;46.864;15.216;2023-12-29T16:13:54;3.15;;;2.30;;
1677;SDS011;6034;46.864;15.216;2023-12-29T16:16:23;8.85;;;2.70;;
1677;SDS011;6034;46.864;15.216;2023-12-29T16:18:55;6.03;;;3.55;;
1677;SDS011;6034;46.864;15.216;2023-12-29T16:21:22;6.13;;;4.50;;
1677;SDS011;6034;46.864;15.216;2023-12-29T16:23:51;5.25;;;3.70;;
1677;SDS011;6034;46.864;15.216;2023-12-29T16:26:18;4.10;;;3.70;;
1677;SDS011;6034;46.864;15.216;2023-12-29T16:28:45;6.32;;;4.80;;
1677;SDS011;6034;46.864;15.216;2023-12-29T16:31:14;4.80;;;3.75;;
1677;SDS011;6034;46.864;15.216;2023-12-29T16:33:42;5.85;;;3.50;;
1677;SDS011;6034;46.864;15.216;2023-12-29T16:36:09;4.95;;;3.00;;
1677;SDS011;6034;46.864;15.216;2023-12-29T16:38:38;3.75;;;2.95;;
1677;SDS011;6034;46.864;15.216;2023-12-29T16:41:13;4.70;;;3.22;;
1677;SDS011;6034;46.864;15.216;2023-12-29T16:43:41;4.53;;;3.05;;
1677;SDS011;6034;46.864;15.216;2023-12-29T16:46:09;3.72;;;2.65;;
1677;SDS011;6034;46.864;15.216;2023-12-29T16:48:38;4.80;;;3.20;;
1677;SDS011;6034;46.864;15.216;2023-12-29T16:51:07;7.50;;;5.18;;
1677;SDS011;6034;46.864;15.216;2023-12-29T16:53:36;11.10;;;6.20;;
1677;SDS011;6034;46.864;15.216;2023-12-29T16:56:04;4.68;;;4.20;;
1677;SDS011;6034;46.864;15.216;2023-12-29T16:58:32;4.82;;;3.38;;
1677;SDS011;6034;46.864;15.216;2023-12-29T17:01:07;5.15;;;3.95;;
1677;SDS011;6034;46.864;15.216;2023-12-29T17:03:36;4.97;;;3.92;;
1677;SDS011;6034;46.864;15.216;2023-12-29T17:06:06;8.05;;;5.68;;
1677;SDS011;6034;46.864;15.216;2023-12-29T17:08:34;10.45;;;8.82;;
1677;SDS011;6034;46.864;15.216;2023-12-29T17:11:02;5.75;;;4.85;;
1677;SDS011;6034;46.864;15.216;2023-12-29T17:13:31;4.53;;;3.38;;
1677;SDS011;6034;46.864;15.216;2023-12-29T17:16:01;3.53;;;2.75;;
1677;SDS011;6034;46.864;15.216;2023-12-29T17:18:31;5.03;;;2.92;;
1677;SDS011;6034;46.864;15.216;2023-12-29T17:20:58;3.40;;;2.95;;
1677;SDS011;6034;46.864;15.216;2023-12-29T17:23:27;4.30;;;3.75;;
1677;SDS011;6034;46.864;15.216;2023-12-29T17:25:55;4.25;;;2.95;;
1677;SDS011;6034;46.864;15.216;2023-12-29T17:28:22;4.75;;;3.05;;
1677;SDS011;6034;46.864;15.216;2023-12-29T17:30:49;9.38;;;3.45;;
1677;SDS011;6034;46.864;15.216;2023-12-29T17:33:17;5.13;;;3.05;;
1677;SDS011;6034;46.864;15.216;2023-12-29T17:35:44;3.33;;;2.70;;
1677;SDS011;6034;46.864;15.216;2023-12-29T17:38:11;3.25;;;2.58;;
1677;SDS011;6034;46.864;15.216;2023-12-29T17:40:40;3.92;;;2.97;;
1677;SDS011;6034;46.864;15.216;2023-12-29T17:43:08;5.18;;;3.22;;
1677;SDS011;6034;46.864;15.216;2023-12-29T17:45:35;3.83;;;2.67;;
1677;SDS011;6034;46.864;15.216;2023-12-29T17:48:03;3.45;;;2.67;;
1677;SDS011;6034;46.864;15.216;2023-12-29T17:50:30;3.03;;;2.72;;
1677;SDS011;6034;46.864;15.216;2023-12-29T17:52:58;20.77;;;11.23;;
1677;SDS011;6034;46.864;15.216;2023-12-29T17:55:25;24.60;;;14.75;;
1677;SDS011;6034;46.864;15.216;2023-12-29T17:57:54;18.17;;;10.70;;
1677;SDS011;6034;46.864;15.216;2023-12-29T18:00:21;9.75;;;6.20;;
1677;SDS011;6034;46.864;15.216;2023-12-29T18:02:49;7.68;;;4.68;;
1677;SDS011;6034;46.864;15.216;2023-12-29T18:05:16;3.50;;;2.90;;
1677;SDS011;6034;46.864;15.216;2023-12-29T18:07:43;3.63;;;3.20;;
1677;SDS011;6034;46.864;15.216;2023-12-29T18:10:11;3.55;;;2.85;;
1677;SDS011;6034;46.864;15.216;2023-12-29T18:12:38;4.35;;;3.10;;
1677;SDS011;6034;46.864;15.216;2023-12-29T18:15:07;5.25;;;3.45;;
1677;SDS011;6034;46.864;15.216;2023-12-29T18:17:38;7.85;;;5.70;;
1677;SDS011;6034;46.864;15.216;2023-12-29T18:20:06;5.63;;;4.07;;
1677;SDS011;6034;46.864;15.216;2023-12-29T18:22:38;3.70;;;2.60;;
1677;SDS011;6034;46.864;15.216;2023-12-29T18:25:05;4.20;;;2.97;;
1677;SDS011;6034;46.864;15.216;2023-12-29T18:27:35;4.97;;;3.17;;
1677;SDS011;6034;46.864;15.216;2023-12-29T18:30:02;4.10;;;3.10;;
1677;SDS011;6034;46.864;15.216;2023-12-29T18:32:32;5.05;;;3.08;;
1677;SDS011;6034;46.864;15.216;2023-12-29T18:34:59;4.30;;;3.15;;
1677;SDS011;6034;46.864;15.216;2023-12-29T18:37:29;3.78;;;2.90;;
1677;SDS011;6034;46.864;15.216;2023-12-29T18:39:57;4.18;;;3.30;;
1677;SDS011;6034;46.864;15.216;2023-12-29T18:42:24;3.83;;;2.83;;
1677;SDS011;6034;46.864;15.216;2023-12-29T18:44:51;6.72;;;2.70;;
1677;SDS011;6034;46.864;15.216;2023-12-29T18:47:19;4.75;;;3.13;;
1677;SDS011;6034;46.864;15.216;2023-12-29T18:49:48;3.35;;;1.85;;
1677;SDS011;6034;46.864;15.216;2023-12-29T18:52:15;4.55;;;3.85;;
1677;SDS011;6034;46.864;15.216;2023-12-29T18:54:43;3.60;;;2.72;;
1677;SDS011;6034;46.864;15.216;2023-12-29T18:57:14;2.95;;;2.15;;
1677;SDS011;6034;46.864;15.216;2023-12-29T18:59:42;3.70;;;2.90;;
1677;SDS011;6034;46.864;15.216;2023-12-29T19:02:12;3.97;;;2.95;;
1677;SDS011;6034;46.864;15.216;2023-12-29T19:04:42;4.40;;;2.80;;
1677;SDS011;6034;46.864;15.216;2023-12-29T19:07:11;13.50;;;9.90;;
1677;SDS011;6034;46.864;15.216;2023-12-29T19:09:43;11.88;;;8.43;;
1677;SDS011;6034;46.864;15.216;2023-12-29T19:12:11;9.57;;;6.35;;
1677;SDS011;6034;46.864;15.216;2023-12-29T19:14:40;5.53;;;4.55;;
1677;SDS011;6034;46.864;15.216;2023-12-29T19:17:07;5.32;;;3.35;;
1677;SDS011;6034;46.864;15.216;2023-12-29T19:19:35;3.85;;;2.90;;
1677;SDS011;6034;46.864;15.216;2023-12-29T19:22:02;5.55;;;2.65;;
1677;SDS011;6034;46.864;15.216;2023-12-29T19:24:31;3.58;;;2.30;;
1677;SDS011;6034;46.864;15.216;2023-12-29T19:27:01;4.13;;;3.20;;
1677;SDS011;6034;46.864;15.216;2023-12-29T19:29:28;3.97;;;3.03;;
1677;SDS011;6034;46.864;15.216;2023-12-29T19:31:55;2.75;;;2.45;;
1677;SDS011;6034;46.864;15.216;2023-12-29T19:34:23;3.65;;;2.58;;
1677;SDS011;6034;46.864;15.216;2023-12-29T19:36:51;3.20;;;2.90;;
1677;SDS011;6034;46.864;15.216;2023-12-29T19:39:18;3.20;;;2.50;;
1677;SDS011;6034;46.864;15.216;2023-12-29T19:41:47;3.78;;;2.53;;
1677;SDS011;6034;46.864;15.216;2023-12-29T19:44:14;5.50;;;3.22;;
1677;SDS011;6034;46.864;15.216;2023-12-29T19:46:42;3.10;;;2.70;;
1677;SDS011;6034;46.864;15.216;2023-12-29T19:49:09;3.72;;;2.88;;
1677;SDS011;6034;46.864;15.216;2023-12-29T19:51:37;3.72;;;2.60;;
1677;SDS011;6034;46.864;15.216;2023-12-29T19:54:04;5.03;;;2.60;;
1677;SDS011;6034;46.864;15.216;2023-12-29T19:56:32;4.43;;;3.05;;
1677;SDS011;6034;46.864;15.216;2023-12-29T19:59:01;3.85;;;2.72;;
1677;SDS011;6034;46.864;15.216;2023-12-29T20:01:29;3.50;;;2.88;;
1677;SDS011;6034;46.864;15.216;2023-12-29T20:03:58;4.57;;;2.40;;
1677;SDS011;6034;46.864;15.216;2023-12-29T20:06:25;3.65;;;2.75;;
1677;SDS011;6034;46.864;15.216;2023-12-29T20:08:53;3.25;;;2.45;;
1677;SDS011;6034;46.864;15.216;2023-12-29T20:11:20;3.45;;;2.08;;
1677;SDS011;6034;46.864;15.216;2023-12-29T20:13:47;5.75;;;2.92;;
1677;SDS011;6034;46.864;15.216;2023-12-29T20:16:20;3.05;;;2.65;;
1677;SDS011;6034;46.864;15.216;2023-12-29T20:18:48;3.33;;;2.97;;
1677;SDS011;6034;46.864;15.216;2023-12-29T20:21:21;5.05;;;3.42;;
1677;SDS011;6034;46.864;15.216;2023-12-29T20:23:50;7.32;;;5.38;;
1677;SDS011;6034;46.864;15.216;2023-12-29T20:26:19;10.50;;;7.32;;
1677;SDS011;6034;46.864;15.216;2023-12-29T20:28:48;20.83;;;15.80;;
1677;SDS011;6034;46.864;15.216;2023-12-29T20:31:26;12.80;;;10.68;;
1677;SDS011;6034;46.864;15.216;2023-12-29T20:33:56;11.45;;;8.23;;
1677;SDS011;6034;46.864;15.216;2023-12-29T20:36:25;11.88;;;8.13;;
1677;SDS011;6034;46.864;15.216;2023-12-29T20:38:53;4.43;;;3.15;;
1677;SDS011;6034;46.864;15.216;2023-12-29T20:41:21;4.40;;;3.33;;
1677;SDS011;6034;46.864;15.216;2023-12-29T20:43:51;7.70;;;3.00;;
1677;SDS011;6034;46.864;15.216;2023-12-29T20:46:21;2.80;;;1.70;;
1677;SDS011;6034;46.864;15.216;2023-12-29T20:48:51;3.17;;;2.10;;
1677;SDS011;6034;46.864;15.216;2023-12-29T20:51:18;2.95;;;2.35;;
1677;SDS011;6034;46.864;15.216;2023-12-29T20:53:46;4.07;;;1.70;;
1677;SDS011;6034;46.864;15.216;2023-12-29T20:56:14;3.05;;;2.15;;
1677;SDS011;6034;46.864;15.216;2023-12-29T20:58:43;2.45;;;1.83;;
1677;SDS011;6034;46.864;15.216;2023-12-29T21:01:12;3.10;;;2.30;;
1677;SDS011;6034;46.864;15.216;2023-12-29T21:03:39;3.72;;;2.10;;
1677;SDS011;6034;46.864;15.216;2023-12-29T21:06:08;4.15;;;1.77;;
1677;SDS011;6034;46.864;15.216;2023-12-29T21:08:41;3.85;;;2.20;;
1677;SDS011;6034;46.864;15.216;2023-12-29T21:11:14;3.38;;;2.13;;
1677;SDS011;6034;46.864;15.216;2023-12-29T21:13:42;2.40;;;1.80;;
1677;SDS011;6034;46.864;15.216;2023-12-29T21:16:12;3.20;;;2.20;;
1677;SDS011;6034;46.864;15.216;2023-12-29T21:18:41;3.47;;;1.80;;